• Join FlightAware (Why Join?)
  • Login
  • US Flag 
10:13AM EDT


 

Airport Tracker/Info


-or-


 

Live Flight TrackerFlight Track Log ✈ N891E ✈ 22-Aug-2013 ✈ WIHH / HLP - WSSL / XSP

Flight Track Log - Related Links

Times and Time Zones

All times are in EDT time to prevent confusion due to time zone crossing. See the N891E flight status page for this flight to view local times or setup timezone preferences in your user account.

Time Position Orientation Groundspeed Altitude Reporting Facility
EDT Latitude Longitude Course Direction KTS MPH feet Rate Location/Type
11:42PM -6.2640 106.8960 63° Northeast 148 170 800  Level FlightAware
11:42PM -6.2580 106.9090 65° Northeast 153 176 2,100 3,300 Climbing FlightAware
11:42PM -6.2500 106.9220 58° Northeast 183 211 3,000 3,000 Climbing FlightAware
11:43PM -6.2410 106.9390 62° Northeast 219 252 4,100 3,420 Climbing FlightAware
11:43PM -6.2300 106.9580 60° Northeast 249 287 5,300 3,840 Climbing FlightAware
11:43PM -6.2270 106.9670 71° East 251 289 5,900 4,680 Climbing FlightAware
11:43PM -6.2260 106.9740 82° East 249 287 6,400 4,500 Climbing FlightAware
11:44PM -6.2360 106.9970 114° Southeast 272 313 8,000 4,200 Climbing FlightAware
11:44PM -6.2450 107.0040 142° Southeast 283 326 8,500 3,960 Climbing FlightAware
11:44PM -6.2500 107.0060 158° South 287 330 8,800 3,960 Climbing FlightAware
11:44PM -6.2640 107.0090 168° South 298 343 9,500 4,080 Climbing FlightAware
11:44PM -6.2920 107.0000 198° South 315 362 11,000 3,720 Climbing FlightAware
11:45PM -6.3080 106.9820 228° Southwest 338 389 11,800 2,340 Climbing FlightAware
11:45PM -6.3300 106.9310 247° West 379 436 12,900 1,020 Climbing FlightAware
11:46PM -6.3510 106.8710 251° West 387 445 13,000 60 Climbing FlightAware
11:46PM -6.3720 106.8100 251° West 386 444 13,000  Level FlightAware
11:47PM -6.3940 106.7450 251° West 421 484 13,000  Level FlightAware
11:47PM -6.4140 106.6860 251° West 424 488 13,000 420 Level FlightAware
11:48PM -6.4050 106.6180 278° West 426 490 13,500 1,140 Climbing FlightAware
11:48PM -6.3840 106.5940 311° West 424 488 14,000 2,160 Climbing FlightAware
11:49PM -6.3600 106.5810 332° Northwest 420 483 14,600 3,120 Climbing FlightAware
11:49PM -6.3010 106.5570 338° Northwest 423 487 16,400 3,420 Climbing FlightAware
11:50PM -6.2360 106.5330 340° North 425 489 18,500 3,000 Climbing FlightAware
11:50PM -6.1690 106.5070 339° North 443 510 20,000 1,260 Climbing FlightAware
11:51PM -6.1030 106.4810 339° North 466 536 20,000  Level FlightAware
11:51PM -6.0290 106.4520 339° North 463 533 20,000  Level FlightAware
11:52PM -5.9630 106.4260 339° North 463 533 20,000  Level FlightAware
11:53PM -5.8850 106.3960 339° North 464 534 20,000  Level FlightAware
11:53PM -5.8280 106.3740 339° North 463 533 20,000  Level FlightAware
11:54PM -5.7660 106.3480 337° Northwest 463 533 20,000  Level FlightAware
11:54PM -5.7050 106.3240 339° North 463 533 20,000  Level FlightAware
11:55PM -5.6440 106.2990 338° Northwest 463 533 20,000  Level FlightAware
11:56PM -5.5820 106.2740 338° Northwest 463 533 20,000  Level FlightAware
11:56PM -5.5210 106.2490 338° Northwest 463 533 20,000  Level FlightAware
11:57PM -5.4590 106.2240 338° Northwest 463 533 20,000 1,800 Level FlightAware
11:59PM -5.2672 106.1578 341° North  Level Estimated
12:00AM -5.1576 106.1200 341° North  Level Estimated
12:01AM -5.0479 106.0822 341° North  Level Estimated
12:02AM -4.9383 106.0445 341° North  Level Estimated
12:03AM -4.8287 106.0067 341° North  Level Estimated
12:04AM -4.7191 105.9690 341° North  Level Estimated
12:05AM -4.6094 105.9312 341° North  Level Estimated
12:06AM -4.4998 105.8935 341° North  Level Estimated
12:07AM -4.3902 105.8558 341° North  Level Estimated
12:08AM -4.2806 105.8181 341° North  Level Estimated
12:09AM -4.1709 105.7804 341° North  Level Estimated
12:10AM -4.0613 105.7427 341° North  Level Estimated
12:10AM -3.8350 105.5180 341° North 432 497 46,300  Level FlightAware
12:11AM -3.7760 105.4940 338° Northwest 415 478 45,100 -1,980 Descending FlightAware
12:11AM -3.7190 105.4710 338° Northwest 410 472 44,200 -1,740 Descending FlightAware
12:12AM -3.6440 105.4420 339° North 425 489 43,000 -840 Descending FlightAware
12:13AM -3.5620 105.4090 338° Northwest 434 499 43,000  Level FlightAware
12:13AM -3.4880 105.3790 338° Northwest 448 516 43,000  Level FlightAware
12:14AM -3.4000 105.3440 338° Northwest 447 514 43,000  Level FlightAware
12:15AM -3.3350 105.3180 338° Northwest 443 510 43,000  Level FlightAware
12:16AM -3.2340 105.2780 338° Northwest 443 510 43,000  Level FlightAware
12:16AM -3.1690 105.2520 338° Northwest 446 513 43,000  Level FlightAware
12:17AM -3.1010 105.2250 338° Northwest 447 514 43,000  Level FlightAware
12:18AM -3.0160 105.1910 338° Northwest 446 513 43,000  Level FlightAware
12:18AM -2.9550 105.1670 339° North 446 513 43,000  Level FlightAware
12:19AM -2.8810 105.1370 338° Northwest 446 513 43,000  Level FlightAware
12:19AM -2.8110 105.1090 338° Northwest 449 517 43,000  Level FlightAware
12:20AM -2.7450 105.0830 339° North 450 518 43,000  Level FlightAware
12:21AM -2.6560 105.0480 339° North 450 518 43,000  Level FlightAware
12:21AM -2.5870 105.0200 338° Northwest 446 513 43,000  Level FlightAware
12:22AM -2.5350 104.9990 338° Northwest 446 513 43,000  Level FlightAware
12:22AM -2.4480 104.9650 339° North 449 517 43,000  Level FlightAware
12:23AM -2.3700 104.9340 338° Northwest 451 519 43,000  Level FlightAware
12:24AM -2.3080 104.9090 338° Northwest 451 519 43,000  Level FlightAware
12:24AM -2.2310 104.8780 338° Northwest 452 520 43,000  Level FlightAware
12:25AM -2.1620 104.8510 339° North 453 521 43,000  Level FlightAware
12:26AM -2.0880 104.8210 338° Northwest 453 521 43,000  Level FlightAware
12:26AM -2.0220 104.7950 339° North 453 521 43,000  Level FlightAware
12:27AM -1.9620 104.7710 338° Northwest 453 521 43,000  Level FlightAware
12:27AM -1.9030 104.7470 338° Northwest 453 521 43,000  Level FlightAware
12:28AM -1.8430 104.7230 338° Northwest 453 521 43,000  Level FlightAware
12:29AM -1.7840 104.6980 337° Northwest 453 521 43,000  Level FlightAware
12:29AM -1.7240 104.6740 338° Northwest 453 521 43,000  Level FlightAware
12:30AM -1.6650 104.6500 338° Northwest 453 521 43,000  Level FlightAware
12:30AM -1.6050 104.6260 338° Northwest 453 521 43,000  Level FlightAware
12:31AM -1.5460 104.6020 338° Northwest 453 521 43,000  Level FlightAware
12:32AM -1.4860 104.5780 338° Northwest 453 521 43,000  Level FlightAware
12:32AM -1.4270 104.5540 338° Northwest 453 521 43,000  Level FlightAware
12:33AM -1.3680 104.5300 338° Northwest 453 521 43,000  Level FlightAware
12:33AM -1.3080 104.5060 338° Northwest 453 521 43,000  Level FlightAware
12:34AM -1.2490 104.4820 338° Northwest 453 521 43,000  Level FlightAware
12:34AM -1.2090 104.4660 338° Northwest 453 521 43,000  Level FlightAware
12:35AM -1.1480 104.4410 338° Northwest 453 521 43,000 -2,040 Level FlightAware
12:38AM -0.8831 104.3388 339° North  Level FlightAware Approximate
12:39AM -0.7750 104.2970 339° North  Level FlightAware Approximate
12:40AM -0.6668 104.2553 339° North  Level FlightAware Approximate
12:41AM -0.5529 104.2341 348° North  Level Estimated
12:42AM -0.4412 104.2031 344° North  Level FlightAware Approximate
12:43AM -0.3296 104.1720 344° North  Level FlightAware Approximate
12:44AM -0.2154 104.1521 349° North  Level Estimated
12:45AM -0.1019 104.1284 348° North  Level FlightAware Approximate
12:46AM 0.0115 104.1047 348° North  Level FlightAware Approximate
12:47AM 0.1249 104.0810 348° North  Level FlightAware Approximate
12:48AM 0.2384 104.0573 348° North  Level FlightAware Approximate
12:48AM 0.5900 104.0510 348° North 401 461 16,000  Level FlightAware
12:49AM 0.6620 104.0620 North 400 460 15,100 -840 Descending FlightAware
12:49AM 0.7250 104.0730 10° North 397 457 15,000 -120 Descending FlightAware
12:50AM 0.8010 104.0860 10° North 399 459 15,000  Level FlightAware
12:50AM 0.8600 104.0970 11° North 396 456 15,000 -480 Level FlightAware
12:51AM 0.9230 104.1040 North 394 453 14,500 -1,080 Descending FlightAware
12:52AM 0.9900 104.1050 North 387 445 13,800 -1,500 Descending FlightAware
12:52AM 1.0480 104.1050 360° North 366 421 12,800 -1,980 Descending FlightAware
12:53AM 1.1070 104.1060 North 332 382 11,500 -2,100 Descending FlightAware
12:53AM 1.1420 104.1030 355° North 296 341 10,700 -1,800 Descending FlightAware
12:54AM 1.1840 104.0960 351° North 299 344 9,900 -1,500 Descending FlightAware
12:54AM 1.2010 104.0930 350° North 300 345 9,600 -1,380 Descending FlightAware
12:54AM 1.2300 104.0890 352° North 294 338 9,100 -1,800 Descending FlightAware
12:55AM 1.2570 104.0840 350° North 290 334 8,400 -2,220 Descending FlightAware
12:55AM 1.2710 104.0810 348° North 285 328 8,000 -2,040 Descending FlightAware
12:55AM 1.2950 104.0720 339° North 281 323 7,400 -1,800 Descending FlightAware
12:55AM 1.3210 104.0630 341° North 278 320 6,800 -1,620 Descending FlightAware
12:56AM 1.3490 104.0540 342° North 281 323 6,200 -1,080 Descending FlightAware
12:56AM 1.3750 104.0450 341° North 256 295 6,000 -900 Descending FlightAware
12:57AM 1.3960 104.0380 342° North 253 291 5,600 -1,380 Descending FlightAware
12:57AM 1.4170 104.0310 342° North 249 287 5,100 -780 Descending FlightAware
12:57AM 1.4400 104.0240 343° North 231 266 5,100 -840 Level FlightAware
12:58AM 1.4670 104.0160 344° North 231 266 4,500 -1,380 Descending FlightAware
12:58AM 1.4860 104.0090 340° North 232 267 4,100 -600 Descending FlightAware
12:58AM 1.5070 104.0020 342° North 224 258 4,100 -240 Level FlightAware
12:58AM 1.5150 103.9970 328° Northwest 224 258 4,000 -1,200 Descending FlightAware
12:59AM 1.5360 103.9820 324° Northwest 228 262 3,400 -1,620 Descending FlightAware
12:59AM 1.5530 103.9690 323° Northwest 232 267 2,800 -1,980 Descending FlightAware
01:00AM 1.5700 103.9540 319° Northwest 228 262 2,100 -2,040 Descending FlightAware
01:00AM 1.5740 103.9470 300° West 223 257 1,800 -1,620 Descending FlightAware
01:00AM 1.5750 103.9420 281° West 218 251 1,700 -420 Descending FlightAware
01:00AM 1.5620 103.9220 237° Southwest 198 228 1,600 -180 Descending FlightAware
01:01AM 1.5470 103.9170 198° South 198 228 1,600  Level FlightAware
01:01AM 1.5280 103.9130 192° South 182 209 1,600  Level FlightAware
01:01AM 1.5110 103.9090 193° South 178 205 1,600  Level FlightAware
01:02AM 1.4970 103.9070 188° South 156 180 1,600  Level FlightAware
01:02AM 1.4850 103.9040 194° South 148 170 1,600 -480 Level FlightAware
01:02AM 1.4710 103.9000 196° South 148 170 1,300 -840 Descending FlightAware
01:03AM 1.4550 103.8920 207° Southwest 138 159 1,000 -840 Descending FlightAware
01:03AM 1.4460 103.8860 214° Southwest 125 144 700 -900 Descending FlightAware
01:03AM 1.4360 103.8800 211° Southwest 123 142 400 -780 Descending FlightAware
01:04AM 1.4260 103.8730 215° Southwest 121 139 200 -540 Descending FlightAware
01:04AM 1.4200 103.8690 214° Southwest 116 133 100 -420 Descending FlightAware